Time;durP1;ratioP1;P1;durP2;ratioP2;P2;SDS_P1;SDS_P2;PMS_P1;PMS_P2;Temp;Humidity;BMP_temperature;BMP_pressure;BME280_temperature;BME280_humidity;BME280_pressure;Samples;Min_cycle;Max_cycle;Signal;HPM_P1;HPM_P2
2023/10/25 00:00:29;;;;;;;8.38;4.13;;;9.30;99.90;;;;;;5104138;27;20036;-65
2023/10/25 00:02:54;;;;;;;5.18;3.75;;;9.30;99.90;;;;;;5101950;27;20074;-65
2023/10/25 00:05:21;;;;;;;6.70;3.90;;;9.30;99.90;;;;;;5105493;27;20077;-65
2023/10/25 00:07:47;;;;;;;5.88;3.45;;;9.30;99.90;;;;;;5103549;27;20074;-65
2023/10/25 00:10:12;;;;;;;6.95;3.63;;;9.20;99.90;;;;;;5102682;27;20070;-65
2023/10/25 00:12:38;;;;;;;6.25;4.20;;;9.30;99.90;;;;;;5104843;27;20764;-65
2023/10/25 00:15:05;;;;;;;7.15;4.10;;;9.30;99.90;;;;;;5105338;27;20035;-65
2023/10/25 00:17:31;;;;;;;7.90;4.55;;;9.30;99.90;;;;;;5101550;27;20050;-65
2023/10/25 00:19:56;;;;;;;7.35;4.18;;;9.30;99.90;;;;;;5132062;27;20039;-65
2023/10/25 00:22:22;;;;;;;8.85;4.88;;;9.20;99.90;;;;;;5103857;27;20039;-65
2023/10/25 00:24:48;;;;;;;8.27;3.72;;;9.20;99.90;;;;;;5102262;27;20058;-65
2023/10/25 00:27:13;;;;;;;8.45;4.10;;;9.20;99.90;;;;;;5105799;27;20114;-65
2023/10/25 00:29:39;;;;;;;8.98;3.78;;;9.20;99.90;;;;;;5106593;27;20031;-65
2023/10/25 00:32:05;;;;;;;4.97;3.33;;;9.20;99.90;;;;;;5137385;27;20047;-65
2023/10/25 00:34:31;;;;;;;8.63;3.70;;;9.20;99.90;;;;;;5106800;27;20031;-65
2023/10/25 00:36:57;;;;;;;5.68;3.50;;;9.10;99.90;;;;;;5107900;27;20048;-65
2023/10/25 00:39:23;;;;;;;6.57;3.58;;;9.10;99.90;;;;;;5105962;27;20043;-65
2023/10/25 00:41:48;;;;;;;6.70;3.95;;;9.10;99.90;;;;;;5103384;27;20032;-65
2023/10/25 00:44:14;;;;;;;9.30;3.97;;;9.10;99.90;;;;;;5103968;27;20687;-65
2023/10/25 00:46:40;;;;;;;5.20;3.50;;;9.10;99.90;;;;;;5134826;27;20075;-65
2023/10/25 00:49:07;;;;;;;7.35;3.28;;;9.10;99.90;;;;;;5100594;27;21596;-65
2023/10/25 00:51:33;;;;;;;8.05;3.42;;;9.10;99.90;;;;;;5101364;28;20244;-65
2023/10/25 00:54:01;;;;;;;6.68;3.60;;;9.00;99.90;;;;;;5102532;27;20525;-65
2023/10/25 00:56:31;;;;;;;6.22;3.38;;;9.00;99.90;;;;;;5103886;27;20047;-65
2023/10/25 00:58:57;;;;;;;9.20;3.60;;;9.00;99.90;;;;;;5081386;28;20036;-65
2023/10/25 01:01:25;;;;;;;7.28;3.40;;;9.00;99.90;;;;;;5103375;27;20524;-65
2023/10/25 01:03:52;;;;;;;6.32;3.72;;;9.00;99.90;;;;;;5103547;27;20042;-65
2023/10/25 01:06:18;;;;;;;5.63;3.03;;;8.90;99.90;;;;;;5105242;27;20054;-65
2023/10/25 01:08:44;;;;;;;6.45;2.95;;;8.90;99.90;;;;;;5102750;27;20039;-65
2023/10/25 01:11:11;;;;;;;9.18;3.50;;;8.90;99.90;;;;;;5101447;28;20043;-65
2023/10/25 01:13:37;;;;;;;8.25;3.38;;;8.90;99.90;;;;;;5105280;27;20405;-65
2023/10/25 01:16:03;;;;;;;11.02;3.65;;;8.90;99.90;;;;;;5104967;28;20054;-65
2023/10/25 01:18:28;;;;;;;5.93;3.45;;;8.90;99.90;;;;;;5103363;28;20051;-65
2023/10/25 01:20:54;;;;;;;6.78;3.30;;;8.90;99.90;;;;;;5104354;28;20039;-65
2023/10/25 01:23:20;;;;;;;6.00;3.65;;;8.90;99.90;;;;;;5107322;27;20047;-65
2023/10/25 01:25:46;;;;;;;6.82;3.47;;;8.90;99.90;;;;;;5105969;27;20035;-65
2023/10/25 01:28:12;;;;;;;11.05;4.00;;;8.90;99.90;;;;;;5103568;28;20122;-65
2023/10/25 01:30:38;;;;;;;5.68;3.42;;;8.80;99.90;;;;;;5103666;28;20126;-65
2023/10/25 01:33:04;;;;;;;7.88;4.30;;;8.90;99.90;;;;;;5103264;28;20086;-65
2023/10/25 01:35:30;;;;;;;9.88;3.85;;;8.80;99.90;;;;;;5104806;28;20063;-65
2023/10/25 01:37:56;;;;;;;6.05;3.42;;;8.80;99.90;;;;;;5100168;28;20047;-65
2023/10/25 01:40:22;;;;;;;9.45;3.95;;;8.80;99.90;;;;;;5102625;28;20140;-65
2023/10/25 01:42:47;;;;;;;10.10;4.53;;;8.80;99.90;;;;;;5105710;28;20096;-65
2023/10/25 01:45:13;;;;;;;8.10;4.20;;;8.80;99.90;;;;;;5132485;27;20043;-65
2023/10/25 01:47:39;;;;;;;6.47;3.55;;;8.80;99.90;;;;;;5105270;28;20035;-65
2023/10/25 01:50:06;;;;;;;10.07;4.13;;;8.70;99.90;;;;;;5102715;28;20031;-65
2023/10/25 01:52:32;;;;;;;8.95;4.30;;;8.80;99.90;;;;;;5101783;28;20044;-65
2023/10/25 01:54:58;;;;;;;8.27;4.03;;;8.80;99.90;;;;;;5102710;28;20121;-65
2023/10/25 01:57:23;;;;;;;11.10;4.45;;;8.80;99.90;;;;;;5133072;27;20039;-65
2023/10/25 01:59:49;;;;;;;10.82;4.15;;;8.70;99.90;;;;;;5104067;27;20036;-65
2023/10/25 02:02:15;;;;;;;7.45;4.05;;;8.70;99.90;;;;;;5108956;27;20435;-65
2023/10/25 02:04:40;;;;;;;13.02;5.05;;;8.70;99.90;;;;;;5109348;27;20035;-65
2023/10/25 02:07:06;;;;;;;8.32;4.95;;;8.70;99.90;;;;;;5108433;27;20751;-65
2023/10/25 02:09:32;;;;;;;8.52;4.47;;;8.70;99.90;;;;;;5136503;27;20046;-65
2023/10/25 02:11:57;;;;;;;12.05;5.15;;;8.70;99.90;;;;;;5111034;27;20037;-65
2023/10/25 02:14:23;;;;;;;10.35;4.65;;;8.70;99.90;;;;;;5106278;27;20035;-65
2023/10/25 02:16:49;;;;;;;8.35;5.15;;;8.70;99.90;;;;;;5102947;27;20133;-65
2023/10/25 02:19:15;;;;;;;10.20;5.20;;;8.60;99.90;;;;;;5135765;27;20042;-65
2023/10/25 02:21:41;;;;;;;10.65;5.65;;;8.60;99.90;;;;;;5138091;27;20213;-65
2023/10/25 02:24:08;;;;;;;11.57;5.10;;;8.70;99.90;;;;;;5108044;27;20565;-65
2023/10/25 02:26:33;;;;;;;10.07;5.57;;;8.60;99.90;;;;;;5103956;27;20043;-65
2023/10/25 02:29:00;;;;;;;14.60;6.15;;;8.60;99.90;;;;;;5105049;27;20038;-65
2023/10/25 02:31:25;;;;;;;14.32;6.10;;;8.60;99.90;;;;;;5106657;27;20598;-65
2023/10/25 02:33:51;;;;;;;9.32;6.68;;;8.60;99.90;;;;;;5133199;27;20045;-65
2023/10/25 02:36:16;;;;;;;10.07;6.03;;;8.60;99.90;;;;;;5106872;27;20445;-65
2023/10/25 02:38:42;;;;;;;15.20;7.13;;;8.60;99.90;;;;;;5109094;27;20130;-65
2023/10/25 02:41:08;;;;;;;10.45;6.13;;;8.60;99.90;;;;;;5107388;27;20043;-65
2023/10/25 02:43:34;;;;;;;12.07;7.35;;;8.60;99.90;;;;;;5105341;27;20040;-65
2023/10/25 02:46:07;;;;;;;11.20;7.00;;;8.60;99.90;;;;;;5106729;27;20040;-65
2023/10/25 02:48:33;;;;;;;10.07;6.70;;;8.60;99.90;;;;;;5108512;28;20052;-65
2023/10/25 02:50:59;;;;;;;13.20;7.10;;;8.50;99.90;;;;;;5105977;27;20485;-65
2023/10/25 02:53:25;;;;;;;11.45;6.72;;;8.50;99.90;;;;;;5104821;27;20039;-65
2023/10/25 02:55:57;;;;;;;9.20;6.43;;;8.60;99.90;;;;;;5107744;27;20074;-65
2023/10/25 02:58:23;;;;;;;13.02;6.45;;;8.60;99.90;;;;;;5105523;27;20448;-65
2023/10/25 03:00:48;;;;;;;9.88;7.32;;;8.60;99.90;;;;;;5106649;27;20110;-65
2023/10/25 03:03:14;;;;;;;13.50;7.45;;;8.60;99.90;;;;;;5107970;27;20135;-65
2023/10/25 03:05:39;;;;;;;13.43;7.05;;;8.50;99.90;;;;;;5106600;27;20075;-65
2023/10/25 03:08:05;;;;;;;16.13;7.85;;;8.50;99.90;;;;;;5104895;27;20540;-65
2023/10/25 03:10:31;;;;;;;8.57;6.57;;;8.60;99.90;;;;;;5107307;27;20122;-65
2023/10/25 03:12:56;;;;;;;10.40;7.05;;;8.50;99.90;;;;;;5103475;27;20051;-65
2023/10/25 03:15:22;;;;;;;11.00;7.28;;;8.50;99.90;;;;;;5105751;27;20142;-65
2023/10/25 03:17:48;;;;;;;7.97;6.50;;;8.50;99.90;;;;;;5104977;27;20039;-65
2023/10/25 03:20:13;;;;;;;9.48;6.50;;;8.50;99.90;;;;;;5100319;27;20036;-65
2023/10/25 03:22:39;;;;;;;10.75;6.18;;;8.50;99.90;;;;;;5100705;27;20115;-65
2023/10/25 03:25:05;;;;;;;8.32;5.90;;;8.50;99.90;;;;;;5132309;27;20039;-65
2023/10/25 03:27:31;;;;;;;10.95;6.53;;;8.50;99.90;;;;;;5106454;27;20604;-65
2023/10/25 03:29:56;;;;;;;9.85;6.43;;;8.50;99.90;;;;;;5104257;27;20032;-65
2023/10/25 03:32:22;;;;;;;10.43;6.10;;;8.40;99.90;;;;;;5103915;27;20035;-65
2023/10/25 03:34:51;;;;;;;8.05;5.60;;;8.40;99.90;;;;;;5106372;27;20064;-65
2023/10/25 03:37:17;;;;;;;11.57;6.00;;;8.40;99.90;;;;;;5107443;27;20406;-65
2023/10/25 03:39:42;;;;;;;10.50;6.15;;;8.40;99.90;;;;;;5105513;27;20044;-65
2023/10/25 03:42:08;;;;;;;9.30;5.57;;;8.40;99.90;;;;;;5105471;27;20486;-65
2023/10/25 03:44:34;;;;;;;10.73;6.20;;;8.30;99.90;;;;;;5105103;27;20035;-65
2023/10/25 03:46:59;;;;;;;8.25;5.70;;;8.40;99.90;;;;;;5104967;27;20038;-65
2023/10/25 03:49:25;;;;;;;13.45;5.70;;;8.30;99.90;;;;;;5103412;27;20050;-65
2023/10/25 03:51:51;;;;;;;11.57;5.25;;;8.30;99.90;;;;;;5102357;27;20054;-65
2023/10/25 03:54:16;;;;;;;8.75;5.65;;;8.30;99.90;;;;;;5104080;27;20047;-65
2023/10/25 03:56:42;;;;;;;8.75;5.55;;;8.20;99.90;;;;;;5105240;27;20054;-65
2023/10/25 03:59:08;;;;;;;11.27;6.32;;;8.30;99.90;;;;;;5106850;27;20058;-65
2023/10/25 04:01:34;;;;;;;11.93;5.55;;;8.30;99.90;;;;;;5102308;27;20043;-65
2023/10/25 04:04:00;;;;;;;8.13;5.57;;;8.20;99.90;;;;;;5102058;27;20504;-65
2023/10/25 04:06:25;;;;;;;8.68;5.68;;;8.20;99.90;;;;;;5108225;27;20048;-65
2023/10/25 04:08:51;;;;;;;13.10;6.35;;;8.30;99.90;;;;;;5103946;27;20043;-65
2023/10/25 04:11:16;;;;;;;8.93;6.00;;;8.30;99.90;;;;;;5103404;27;20031;-65
2023/10/25 04:13:43;;;;;;;10.88;5.95;;;8.30;99.90;;;;;;5104779;27;20084;-65
2023/10/25 04:16:09;;;;;;;9.90;5.60;;;8.20;99.90;;;;;;5101079;27;20051;-65
2023/10/25 04:18:36;;;;;;;7.55;5.70;;;8.20;99.90;;;;;;5102773;27;20493;-65
2023/10/25 04:21:03;;;;;;;8.95;5.70;;;8.20;99.90;;;;;;5105254;27;20043;-65
2023/10/25 04:23:30;;;;;;;10.27;5.40;;;8.20;99.90;;;;;;5102682;27;20051;-65
2023/10/25 04:26:10;;;;;;;7.90;5.97;;;8.20;99.90;;;;;;5132444;27;20069;-65
2023/10/25 04:28:41;;;;;;;12.23;5.75;;;8.30;99.90;;;;;;5101378;27;20435;-65
2023/10/25 04:31:08;;;;;;;8.25;5.35;;;8.20;99.90;;;;;;5103309;27;20043;-65
2023/10/25 04:33:33;;;;;;;9.77;5.72;;;8.20;99.90;;;;;;5101808;27;20437;-65
2023/10/25 04:35:59;;;;;;;6.35;5.53;;;8.20;99.90;;;;;;5101390;27;20120;-65
2023/10/25 04:38:25;;;;;;;11.20;6.32;;;8.20;99.90;;;;;;5131272;27;20431;-65
2023/10/25 04:40:51;;;;;;;10.32;6.03;;;8.10;99.90;;;;;;5099389;27;20036;-65
2023/10/25 04:43:17;;;;;;;10.38;6.13;;;8.20;99.90;;;;;;5101806;28;20478;-65
2023/10/25 04:45:43;;;;;;;11.40;6.00;;;8.10;99.90;;;;;;5101285;27;20040;-65
2023/10/25 04:48:08;;;;;;;10.02;5.82;;;8.20;99.90;;;;;;5090566;27;20390;-65
2023/10/25 04:50:36;;;;;;;8.35;5.68;;;8.20;99.90;;;;;;5101097;27;20165;-65
2023/10/25 04:53:02;;;;;;;10.48;5.93;;;8.10;99.90;;;;;;5129696;27;20036;-65
2023/10/25 04:55:29;;;;;;;8.65;5.30;;;8.20;99.90;;;;;;5103912;28;20520;-65
2023/10/25 04:57:56;;;;;;;12.68;5.88;;;8.10;99.90;;;;;;5102537;27;20076;-65
2023/10/25 05:00:22;;;;;;;11.63;6.10;;;8.10;99.90;;;;;;5099103;27;20051;-65
2023/10/25 05:02:48;;;;;;;9.63;6.05;;;8.10;99.90;;;;;;5102097;28;20039;-65
2023/10/25 05:05:14;;;;;;;9.27;5.78;;;8.00;99.90;;;;;;5103187;28;20485;-65
2023/10/25 05:07:40;;;;;;;9.75;5.63;;;8.10;99.90;;;;;;5134402;27;20040;-65
2023/10/25 05:10:07;;;;;;;13.48;5.18;;;8.10;99.90;;;;;;5105070;27;20064;-65
2023/10/25 05:12:38;;;;;;;9.00;5.53;;;8.10;99.90;;;;;;5101678;27;20039;-65
2023/10/25 05:15:08;;;;;;;13.18;5.93;;;7.80;99.90;;;;;;5102923;27;20350;-65
2023/10/25 05:17:34;;;;;;;13.10;6.22;;;8.00;99.90;;;;;;5134021;27;20065;-65
2023/10/25 05:20:07;;;;;;;12.85;5.15;;;8.10;99.90;;;;;;5096558;28;20036;-65
2023/10/25 05:22:41;;;;;;;7.38;4.97;;;8.10;99.90;;;;;;5133676;27;20043;-65
2023/10/25 05:25:09;;;;;;;13.05;6.13;;;8.00;99.90;;;;;;5100607;28;20036;-65
2023/10/25 05:27:36;;;;;;;8.05;5.15;;;8.00;99.90;;;;;;5099121;28;20028;-65
2023/10/25 05:30:03;;;;;;;9.75;5.00;;;8.00;99.90;;;;;;5136144;27;20046;-65
2023/10/25 05:32:30;;;;;;;11.23;5.60;;;8.00;99.90;;;;;;5102403;27;20130;-65
2023/10/25 05:34:58;;;;;;;7.80;4.40;;;8.00;99.90;;;;;;5105727;27;20124;-65
2023/10/25 05:37:25;;;;;;;7.50;4.75;;;8.00;99.90;;;;;;5108161;27;20405;-65
2023/10/25 05:39:51;;;;;;;10.60;4.93;;;7.90;99.90;;;;;;5109284;27;20103;-65
2023/10/25 05:42:19;;;;;;;8.25;5.32;;;8.00;99.90;;;;;;5105880;27;20471;-65
2023/10/25 05:44:45;;;;;;;7.50;4.88;;;8.00;99.90;;;;;;5107253;27;20043;-65
2023/10/25 05:47:11;;;;;;;9.80;4.55;;;8.00;99.90;;;;;;5139972;27;20043;-65
2023/10/25 05:49:37;;;;;;;8.07;4.68;;;7.90;99.90;;;;;;5108652;27;20225;-65
2023/10/25 05:52:03;;;;;;;8.52;5.18;;;7.90;99.90;;;;;;5113244;27;20044;-65
2023/10/25 05:54:29;;;;;;;11.10;5.03;;;7.90;99.90;;;;;;5110776;27;20439;-65
2023/10/25 05:56:55;;;;;;;9.18;4.88;;;8.00;99.90;;;;;;5109830;27;20048;-65
2023/10/25 05:59:21;;;;;;;11.07;5.00;;;7.90;99.90;;;;;;5108781;27;20032;-65
2023/10/25 06:02:01;;;;;;;12.32;5.05;;;8.00;99.90;;;;;;5110950;27;20040;-65
2023/10/25 06:04:30;;;;;;;10.68;5.18;;;8.00;99.90;;;;;;5109913;27;20047;-65
2023/10/25 06:06:56;;;;;;;7.85;5.40;;;8.00;99.90;;;;;;5106560;27;20498;-65
2023/10/25 06:09:22;;;;;;;9.40;6.00;;;8.00;99.90;;;;;;5104300;27;20190;-65
2023/10/25 06:11:48;;;;;;;9.07;5.30;;;8.00;99.90;;;;;;5105276;27;20115;-65
2023/10/25 06:14:14;;;;;;;8.27;4.97;;;7.90;99.90;;;;;;5108394;27;20080;-65
2023/10/25 06:16:39;;;;;;;7.63;5.43;;;8.00;99.90;;;;;;5106633;27;20036;-64
2023/10/25 06:19:06;;;;;;;8.30;4.50;;;8.00;99.90;;;;;;5108158;27;20062;-65
2023/10/25 06:21:31;;;;;;;13.07;6.35;;;8.00;99.90;;;;;;5109711;27;20048;-65
2023/10/25 06:23:57;;;;;;;11.10;5.75;;;8.00;99.90;;;;;;5107264;27;20039;-64
2023/10/25 06:26:24;;;;;;;8.95;5.00;;;7.90;99.90;;;;;;5105045;27;20043;-65
2023/10/25 06:28:50;;;;;;;10.45;5.25;;;7.90;99.90;;;;;;5110508;27;20036;-65
2023/10/25 06:31:16;;;;;;;7.85;5.03;;;7.90;99.90;;;;;;5112342;27;20051;-65
2023/10/25 06:33:42;;;;;;;9.10;6.28;;;8.00;99.90;;;;;;5110907;27;20116;-65
2023/10/25 06:36:08;;;;;;;9.07;6.45;;;7.90;99.90;;;;;;5107208;27;20051;-65
2023/10/25 06:38:35;;;;;;;10.02;5.43;;;8.00;99.90;;;;;;5107602;27;21607;-65
2023/10/25 06:41:01;;;;;;;14.25;5.65;;;7.90;99.90;;;;;;5110428;27;20104;-65
2023/10/25 06:43:31;;;;;;;10.70;5.78;;;8.00;99.90;;;;;;5106862;27;20130;-65
2023/10/25 06:45:59;;;;;;;10.00;5.55;;;8.00;99.90;;;;;;5130832;27;20036;-65
2023/10/25 06:48:25;;;;;;;8.00;5.45;;;8.00;99.90;;;;;;5103712;27;20422;-65
2023/10/25 06:50:52;;;;;;;13.25;5.40;;;8.00;99.90;;;;;;5102312;27;20043;-64
2023/10/25 06:53:19;;;;;;;9.40;5.45;;;8.00;99.90;;;;;;5104270;27;20485;-64
2023/10/25 06:55:45;;;;;;;11.55;6.22;;;8.00;99.90;;;;;;5102323;27;20078;-65
2023/10/25 06:58:11;;;;;;;11.00;6.50;;;8.10;99.90;;;;;;5104443;27;20531;-65
2023/10/25 07:00:38;;;;;;;8.55;5.30;;;8.10;99.90;;;;;;5099526;27;20711;-65
2023/10/25 07:03:08;;;;;;;10.55;6.45;;;8.10;99.90;;;;;;5103744;27;20097;-65
2023/10/25 07:05:35;;;;;;;14.88;6.05;;;8.10;99.90;;;;;;5134985;27;20040;-65
2023/10/25 07:08:02;;;;;;;13.13;5.93;;;8.10;99.90;;;;;;5105942;27;20035;-65
2023/10/25 07:10:28;;;;;;;6.70;5.50;;;8.10;99.90;;;;;;5103556;27;20079;-65
2023/10/25 07:12:53;;;;;;;12.00;6.47;;;8.10;99.90;;;;;;5101961;27;20088;-65
2023/10/25 07:15:19;;;;;;;9.38;6.43;;;8.20;99.90;;;;;;5136029;27;20482;-65
2023/10/25 07:17:45;;;;;;;13.07;7.00;;;8.20;99.90;;;;;;5103115;27;20035;-64
2023/10/25 07:20:11;;;;;;;9.63;5.45;;;8.20;99.90;;;;;;5104703;27;20038;-65
2023/10/25 07:22:38;;;;;;;11.63;6.15;;;8.30;99.90;;;;;;5104755;27;20035;-64
2023/10/25 07:25:05;;;;;;;12.52;6.20;;;8.30;99.90;;;;;;5100958;27;20366;-64
2023/10/25 07:27:30;;;;;;;9.45;5.90;;;8.30;99.90;;;;;;5100047;27;20053;-65
2023/10/25 07:29:56;;;;;;;8.00;5.78;;;8.30;99.90;;;;;;5104165;27;20044;-64
2023/10/25 07:32:22;;;;;;;15.18;6.40;;;8.30;99.90;;;;;;5100945;27;20069;-65
2023/10/25 07:34:47;;;;;;;9.00;4.85;;;8.40;99.90;;;;;;5104022;27;20517;-64
2023/10/25 07:37:13;;;;;;;6.95;5.35;;;8.40;99.90;;;;;;5099931;27;20443;-64
2023/10/25 07:39:40;;;;;;;7.03;5.10;;;8.50;99.90;;;;;;5100467;27;20079;-65
2023/10/25 07:42:06;;;;;;;8.65;5.00;;;8.50;99.90;;;;;;5099356;27;20499;-64
2023/10/25 07:44:32;;;;;;;8.73;5.05;;;8.50;99.90;;;;;;5103331;27;20059;-65
2023/10/25 07:46:57;;;;;;;14.98;5.25;;;8.60;99.90;;;;;;5102974;27;20047;-65
2023/10/25 07:49:23;;;;;;;7.03;5.20;;;8.60;99.90;;;;;;5106404;27;20063;-65
2023/10/25 07:51:48;;;;;;;8.07;5.10;;;8.70;99.90;;;;;;5100501;27;20050;-65
2023/10/25 07:54:14;;;;;;;8.30;4.93;;;8.70;99.90;;;;;;5136337;27;20084;-65
2023/10/25 07:56:40;;;;;;;6.68;4.88;;;8.70;99.90;;;;;;5084613;28;20088;-64
2023/10/25 07:59:05;;;;;;;8.65;5.07;;;8.70;99.90;;;;;;5100481;27;20696;-65
2023/10/25 08:01:31;;;;;;;10.77;5.15;;;8.80;99.90;;;;;;5103539;27;20034;-64
2023/10/25 08:03:57;;;;;;;7.30;5.07;;;8.80;99.90;;;;;;5102270;27;20037;-65
2023/10/25 08:06:22;;;;;;;11.90;4.95;;;8.90;99.90;;;;;;5106611;27;20081;-65
2023/10/25 08:08:49;;;;;;;7.28;5.05;;;8.90;99.90;;;;;;5096423;27;22071;-65
2023/10/25 08:11:15;;;;;;;11.43;5.25;;;9.00;99.90;;;;;;5100408;27;20048;-65
2023/10/25 08:13:42;;;;;;;7.18;4.93;;;9.00;99.90;;;;;;5100090;27;20028;-65
2023/10/25 08:16:08;;;;;;;7.72;4.65;;;9.00;99.90;;;;;;5105494;27;20489;-65
2023/10/25 08:18:34;;;;;;;7.57;4.72;;;9.10;99.90;;;;;;5098272;27;20040;-65
2023/10/25 08:21:01;;;;;;;5.95;4.47;;;9.10;99.90;;;;;;5104797;27;20047;-65
2023/10/25 08:23:27;;;;;;;7.20;4.45;;;9.10;99.90;;;;;;5101009;27;20039;-65
2023/10/25 08:25:53;;;;;;;5.57;4.80;;;9.20;99.90;;;;;;5100935;27;20490;-64
2023/10/25 08:28:18;;;;;;;6.22;4.35;;;9.20;99.90;;;;;;5105524;27;20171;-64
2023/10/25 08:30:44;;;;;;;9.25;5.28;;;9.30;99.90;;;;;;5102469;27;20050;-64
2023/10/25 08:33:13;;;;;;;7.93;4.60;;;9.20;99.90;;;;;;5131601;27;20076;-64
2023/10/25 08:35:38;;;;;;;6.43;4.53;;;9.30;99.90;;;;;;5101684;27;20043;-64
2023/10/25 08:38:05;;;;;;;8.48;4.53;;;9.30;99.90;;;;;;5103840;27;20129;-64
2023/10/25 08:40:34;;;;;;;7.78;4.85;;;9.40;99.90;;;;;;5103766;27;20409;-64
2023/10/25 08:43:01;;;;;;;12.93;4.75;;;9.40;99.90;;;;;;5102748;27;20124;-64
2023/10/25 08:45:29;;;;;;;5.70;4.53;;;9.50;99.90;;;;;;5132546;27;20497;-64
2023/10/25 08:47:55;;;;;;;8.90;4.75;;;9.50;99.90;;;;;;5100336;27;20035;-64
2023/10/25 08:50:20;;;;;;;11.05;4.95;;;9.50;99.90;;;;;;5133323;27;20118;-64
2023/10/25 08:52:51;;;;;;;7.90;4.63;;;9.60;99.90;;;;;;5099465;28;20046;-64
2023/10/25 08:55:20;;;;;;;8.07;4.40;;;9.60;99.90;;;;;;5132204;27;20039;-64
2023/10/25 08:57:46;;;;;;;11.10;5.85;;;9.60;99.90;;;;;;5099870;27;20114;-64
2023/10/25 09:00:12;;;;;;;7.65;4.10;;;9.60;99.90;;;;;;5102384;27;20120;-64
2023/10/25 09:02:38;;;;;;;9.68;4.90;;;9.70;99.90;;;;;;5099822;28;20039;-64
2023/10/25 09:05:08;;;;;;;7.40;4.57;;;9.70;99.90;;;;;;5127154;27;20042;-64
2023/10/25 09:07:38;;;;;;;4.75;4.15;;;9.80;99.90;;;;;;5098115;27;20127;-64
2023/10/25 09:10:11;;;;;;;9.45;4.75;;;9.80;99.90;;;;;;5131656;27;20119;-64
2023/10/25 09:12:37;;;;;;;8.57;4.57;;;9.80;99.90;;;;;;5100298;27;20038;-64
2023/10/25 09:15:04;;;;;;;10.32;4.95;;;9.90;99.90;;;;;;5101188;27;20043;-64
2023/10/25 09:17:33;;;;;;;7.82;4.22;;;9.90;99.90;;;;;;5114620;27;20101;-64
2023/10/25 09:19:58;;;;;;;11.82;5.15;;;10.00;99.90;;;;;;5099306;27;20138;-64
2023/10/25 09:22:26;;;;;;;8.80;4.18;;;10.00;99.90;;;;;;5102699;27;20405;-65
2023/10/25 09:24:56;;;;;;;6.05;3.47;;;10.20;99.90;;;;;;5100124;28;20142;-64
2023/10/25 09:27:23;;;;;;;11.70;4.80;;;10.30;99.90;;;;;;5096351;28;20131;-64
2023/10/25 09:29:50;;;;;;;8.77;4.53;;;10.40;99.90;;;;;;5100671;28;20023;-64
2023/10/25 09:32:20;;;;;;;7.28;4.28;;;10.50;99.90;;;;;;5131994;27;20044;-64
2023/10/25 09:34:47;;;;;;;7.07;4.18;;;10.70;99.90;;;;;;5098809;28;20059;-64
2023/10/25 09:37:14;;;;;;;7.57;4.40;;;10.80;99.90;;;;;;5099436;28;20134;-64
2023/10/25 09:39:39;;;;;;;6.00;4.63;;;10.90;99.90;;;;;;5115693;28;20050;-65
2023/10/25 09:42:09;;;;;;;9.60;5.05;;;11.00;99.90;;;;;;5103166;28;20971;-64
2023/10/25 09:44:40;;;;;;;9.02;4.07;;;11.10;99.90;;;;;;5099345;28;20044;-64
2023/10/25 09:47:11;;;;;;;8.18;3.90;;;11.20;99.90;;;;;;5099136;28;20048;-64
2023/10/25 09:49:42;;;;;;;6.90;3.58;;;11.40;99.90;;;;;;5099597;28;20115;-64
2023/10/25 09:52:18;;;;;;;8.70;4.50;;;11.50;99.90;;;;;;5133316;27;20611;-64
2023/10/25 09:55:08;;;;;;;6.53;3.75;;;11.50;99.90;;;;;;5104180;28;20035;-64
2023/10/25 09:57:35;;;;;;;10.18;4.30;;;11.70;99.90;;;;;;5126400;27;20047;-64
2023/10/25 10:00:05;;;;;;;7.40;4.38;;;11.70;99.90;;;;;;5098388;28;20036;-64
2023/10/25 10:02:42;;;;;;;9.27;3.55;;;11.80;99.90;;;;;;5098524;28;20634;-64
2023/10/25 10:05:21;;;;;;;5.97;3.70;;;11.90;99.90;;;;;;5110958;28;20116;-64
2023/10/25 10:08:04;;;;;;;12.00;3.72;;;12.00;99.90;;;;;;5093745;28;20430;-64
2023/10/25 10:10:43;;;;;;;5.05;3.10;;;12.00;99.90;;;;;;5097691;28;20043;-64
2023/10/25 10:13:17;;;;;;;4.88;2.90;;;12.10;99.90;;;;;;5099814;28;20050;-64
2023/10/25 10:16:15;;;;;;;6.55;3.30;;;12.20;99.90;;;;;;5096544;28;20047;-64
2023/10/25 10:18:45;;;;;;;5.65;2.88;;;12.20;99.90;;;;;;5069112;28;20051;-64
2023/10/25 10:21:14;;;;;;;5.38;3.05;;;12.30;99.90;;;;;;5104098;27;20657;-64
2023/10/25 10:23:51;;;;;;;8.82;2.97;;;12.30;99.90;;;;;;5100858;27;20047;-64
2023/10/25 10:26:46;;;;;;;8.50;4.32;;;12.30;99.90;;;;;;5102843;27;20093;-64
2023/10/25 10:29:31;;;;;;;6.07;3.50;;;12.20;99.90;;;;;;5102644;28;20472;-64
2023/10/25 10:31:58;;;;;;;5.18;2.67;;;12.20;99.90;;;;;;5100655;28;20055;-64
2023/10/25 10:34:44;;;;;;;4.10;2.88;;;12.20;99.90;;;;;;5103218;27;20123;-64
2023/10/25 10:37:16;;;;;;;14.48;4.10;;;12.10;99.90;;;;;;5097288;28;20634;-64
2023/10/25 10:40:02;;;;;;;8.10;2.90;;;12.20;99.90;;;;;;5102808;28;20955;-64
2023/10/25 10:42:34;;;;;;;6.38;3.25;;;12.20;99.90;;;;;;5139035;27;20054;-64
2023/10/25 10:45:01;;;;;;;8.35;3.42;;;12.20;99.90;;;;;;5097367;27;20075;-64
2023/10/25 10:48:02;;;;;;;5.07;3.25;;;12.20;99.90;;;;;;5133544;27;20050;-64
2023/10/25 10:50:28;;;;;;;5.70;3.10;;;12.30;99.90;;;;;;5099454;27;21057;-64
2023/10/25 10:52:54;;;;;;;6.50;3.05;;;12.30;99.90;;;;;;5102543;27;20123;-64
2023/10/25 10:55:24;;;;;;;4.55;2.80;;;12.40;99.90;;;;;;5101140;27;20046;-64
2023/10/25 10:57:51;;;;;;;7.18;3.15;;;12.30;99.90;;;;;;5100119;28;20070;-64
2023/10/25 11:00:18;;;;;;;6.78;3.30;;;12.30;99.90;;;;;;5099577;28;20118;-64
2023/10/25 11:02:47;;;;;;;6.53;3.30;;;12.20;99.90;;;;;;5135994;27;20088;-64
2023/10/25 11:05:14;;;;;;;6.47;3.00;;;12.30;99.90;;;;;;5101185;27;20045;-64
2023/10/25 11:07:40;;;;;;;4.93;3.28;;;12.20;99.90;;;;;;5101342;27;20082;-64
2023/10/25 11:10:06;;;;;;;6.53;3.90;;;12.20;99.90;;;;;;5103027;27;20071;-64
2023/10/25 11:12:32;;;;;;;6.40;2.83;;;12.20;99.90;;;;;;5106379;28;20154;-64
2023/10/25 11:15:03;;;;;;;3.60;2.70;;;12.10;99.90;;;;;;5101819;28;20104;-64
2023/10/25 11:17:30;;;;;;;6.28;3.10;;;12.10;99.90;;;;;;5099692;27;20043;-64
2023/10/25 11:19:55;;;;;;;6.28;2.65;;;12.10;99.90;;;;;;5103054;27;20043;-64
2023/10/25 11:22:21;;;;;;;6.03;2.75;;;12.10;99.90;;;;;;5102873;28;20043;-64
2023/10/25 11:24:48;;;;;;;5.60;2.78;;;12.00;99.90;;;;;;5104363;28;20078;-64
2023/10/25 11:27:13;;;;;;;5.85;3.10;;;12.00;99.90;;;;;;5105332;27;20088;-64
2023/10/25 11:29:40;;;;;;;5.28;2.90;;;12.00;99.90;;;;;;5121725;27;20048;-64
2023/10/25 11:32:11;;;;;;;8.93;2.83;;;11.90;99.90;;;;;;5134965;27;20072;-64
2023/10/25 11:34:41;;;;;;;5.28;2.78;;;11.90;99.90;;;;;;5104710;27;20057;-64
2023/10/25 11:37:07;;;;;;;5.05;2.95;;;11.90;99.90;;;;;;5104253;28;20044;-64
2023/10/25 11:39:53;;;;;;;8.80;2.90;;;11.80;99.90;;;;;;5100271;27;20066;-64
2023/10/25 11:42:19;;;;;;;;;;;11.70;99.90;;;;;;5102664;27;20039;-64
2023/10/25 11:44:45;;;;;;;4.55;2.70;;;11.70;99.90;;;;;;5105714;27;20053;-64
2023/10/25 11:47:21;;;;;;;5.05;2.90;;;11.70;99.90;;;;;;5098699;28;20051;-64
2023/10/25 11:49:54;;;;;;;4.72;3.05;;;11.70;99.90;;;;;;5088287;28;20092;-64
2023/10/25 11:52:21;;;;;;;4.82;3.28;;;11.60;99.90;;;;;;5104068;27;20397;-64
2023/10/25 11:54:47;;;;;;;4.25;2.88;;;11.50;99.90;;;;;;5100532;28;20043;-64
2023/10/25 11:57:13;;;;;;;7.18;3.58;;;11.50;99.90;;;;;;5102924;27;20513;-64
2023/10/25 11:59:38;;;;;;;6.20;3.40;;;11.50;99.90;;;;;;5102004;27;20067;-64
2023/10/25 12:02:04;;;;;;;4.25;2.90;;;11.50;99.90;;;;;;5101496;27;20719;-64
2023/10/25 12:04:30;;;;;;;6.97;3.00;;;11.60;99.90;;;;;;5102568;27;20134;-64
2023/10/25 12:06:55;;;;;;;5.82;3.13;;;11.50;99.90;;;;;;5101903;27;20423;-64
2023/10/25 12:09:21;;;;;;;5.22;3.00;;;11.50;99.90;;;;;;5099874;28;20047;-65
2023/10/25 12:11:47;;;;;;;7.75;2.92;;;11.50;99.90;;;;;;5098997;28;20028;-66
2023/10/25 12:14:12;;;;;;;6.93;2.78;;;11.50;99.90;;;;;;5099244;28;20047;-67
2023/10/25 12:16:38;;;;;;;6.20;2.90;;;11.60;99.90;;;;;;5133039;27;20130;-68
2023/10/25 12:19:03;;;;;;;8.63;2.75;;;11.60;99.90;;;;;;5133795;27;20047;-67
2023/10/25 12:21:31;;;;;;;4.90;2.70;;;11.50;99.90;;;;;;5101238;27;20043;-68
2023/10/25 12:23:56;;;;;;;4.18;2.70;;;11.60;99.90;;;;;;5101274;28;20075;-67
2023/10/25 12:26:22;;;;;;;3.22;2.65;;;11.50;99.90;;;;;;5099132;27;20090;-66
2023/10/25 12:28:47;;;;;;;5.15;3.20;;;11.50;99.90;;;;;;5097162;28;20032;-66
2023/10/25 12:31:13;;;;;;;7.85;2.65;;;11.50;99.90;;;;;;5098558;28;20403;-67
2023/10/25 12:33:39;;;;;;;6.07;2.85;;;11.40;99.90;;;;;;5097372;27;20092;-66
2023/10/25 12:36:05;;;;;;;4.38;3.10;;;11.60;99.90;;;;;;5100477;28;20044;-67
2023/10/25 12:38:30;;;;;;;9.68;3.15;;;11.50;99.90;;;;;;5112302;27;20524;-70
2023/10/25 12:40:56;;;;;;;4.05;2.45;;;11.40;99.90;;;;;;5103816;28;20478;-71
2023/10/25 12:43:21;;;;;;;9.85;3.25;;;11.40;99.90;;;;;;5099866;27;20028;-66
2023/10/25 12:45:47;;;;;;;4.95;2.50;;;11.50;99.90;;;;;;5098993;28;20039;-66
2023/10/25 12:48:13;;;;;;;6.32;3.00;;;11.40;99.90;;;;;;5098863;27;20044;-64
2023/10/25 12:50:39;;;;;;;5.15;2.92;;;11.40;99.90;;;;;;5097656;28;20070;-65